Tim Quigg — WDB6570 — position and weather

sailwx.info

Track history (hours):
 
Tides and Currents Weather Stations Pressure Air Temp Water Temp Dewpoint Dewpoint Depression Visibility Wind Speed Wind Dir Waves Ship Positions

Tim Quigg

Owner: Harley Marine Services, Inc, Seattle, WA. More information available from US FCC via Universal Licensing System and Coast Guard Vessel Documentation Center.

Last reported at 2015-Jul-29 09:20 UTC. Time now 2015-Jul-29 11:30 UTC.
Position N 33°44' W 118°16'.

; draft 7.5 m.

Type: Tug. MMSI: 366926740.

Date/timePositionNaut miles runAvg speedWind from/ knotsBaromVisibWave heightAir tempDewpointWater temp
2015-Jul-29 09:20N 33°44' W 118°16'0 0.0
2015-Jul-29 08:33N 33°44' W 118°16'0 0.0
2015-Jul-29 07:34N 33°44' W 118°16'0 0.0
2015-Jul-29 06:17N 33°44' W 118°16'0 0.0
2015-Jul-29 04:15N 33°44' W 118°16'0 0.0
2015-Jul-29 03:33N 33°44' W 118°16'0 0.0
2015-Jul-29 02:34N 33°44' W 118°16'0 0.0
2015-Jul-29 01:33N 33°44' W 118°16'2 1.7
2015-Jul-29 00:27N 33°43' W 118°14'1 1.4
2015-Jul-28 23:33N 33°44' W 118°12'3 3.0
2015-Jul-28 22:33N 33°44' W 118°16'0 0.0
2015-Jul-28 21:33N 33°44' W 118°16'0 0.0
2015-Jul-28 20:33N 33°44' W 118°16'4 3.3
2015-Jul-28 19:28N 33°47' W 118°13'0 0.5
2015-Jul-28 18:34N 33°46' W 118°13'0 0.3
2015-Jul-28 17:33N 33°46' W 118°13'2 1.7
2015-Jul-28 16:33N 33°45' W 118°13'2 1.7
2015-Jul-28 15:33N 33°43' W 118°12'3 1.6
2015-Jul-28 13:28N 33°44' W 118°16'2 2.0
2015-Jul-28 12:29N 33°46' W 118°16'3 3.4
2015-Jul-28 11:32N 33°43' W 118°15'1 0.6
2015-Jul-28 09:15N 33°44' W 118°16'0 0.0
2015-Jul-28 08:21N 33°44' W 118°16'0 0.0
2015-Jul-28 07:31N 33°44' W 118°16'0 0.0
2015-Jul-28 06:32N 33°44' W 118°16'0 0.0
2015-Jul-28 05:33N 33°44' W 118°16'0 0.0
2015-Jul-28 04:34N 33°44' W 118°16'0 0.0
2015-Jul-28 03:33N 33°44' W 118°16'0 0.0
2015-Jul-28 02:33N 33°44' W 118°16'0 0.0
2015-Jul-28 01:33N 33°44' W 118°16'0 0.0
2015-Jul-28 00:33N 33°44' W 118°16'0 0.0
2015-Jul-27 23:33N 33°44' W 118°16'0 0.0
2015-Jul-27 22:32N 33°44' W 118°16'0 0.0
2015-Jul-27 21:33N 33°44' W 118°16'0 0.0
2015-Jul-27 19:19N 33°44' W 118°16'0 0.0
2015-Jul-27 18:33N 33°44' W 118°16'1 0.5
2015-Jul-27 17:11N 33°44' W 118°16'0 0.0
2015-Jul-27 16:24N 33°44' W 118°16'0 0.0
2015-Jul-27 15:30N 33°44' W 118°16'3 1.3
2015-Jul-27 13:19N 33°43' W 118°13'2 1.9
2015-Jul-27 12:10N 33°44' W 118°16'0 0.0
2015-Jul-27 10:10N 33°44' W 118°16'0 0.0
2015-Jul-27 09:30N 33°44' W 118°16'0 0.0
2015-Jul-27 08:28N 33°44' W 118°16'0 0.0
2015-Jul-27 07:34N 33°44' W 118°16'0 0.0
2015-Jul-27 04:33N 33°44' W 118°16'0 0.0
2015-Jul-27 03:33N 33°44' W 118°16'0 0.0
2015-Jul-27 02:33N 33°44' W 118°16'0 0.0
2015-Jul-27 01:33N 33°44' W 118°16'0 0.0
2015-Jul-27 00:34N 33°44' W 118°16'0 0.0
2015-Jul-26 23:33N 33°44' W 118°16'0 0.0
2015-Jul-26 22:33N 33°44' W 118°16'0 0.0
2015-Jul-26 21:33N 33°44' W 118°16'0 0.0
2015-Jul-26 20:33N 33°44' W 118°16'0 0.0
2015-Jul-26 19:32N 33°44' W 118°16'0 0.0
2015-Jul-26 18:33N 33°44' W 118°16'0 0.0
2015-Jul-26 17:32N 33°44' W 118°16'0 0.0
2015-Jul-26 15:33N 33°44' W 118°16'3 2.5
2015-Jul-26 14:32N 33°45' W 118°13'1 0.6
2015-Jul-26 13:24N 33°45' W 118°12'2 1.8
2015-Jul-26 12:33N 33°45' W 118°14'2 1.6
2015-Jul-26 11:30N 33°44' W 118°14'2 1.3
2015-Jul-26 10:12N 33°44' W 118°16'0 0.0
2015-Jul-26 09:30N 33°44' W 118°16'0 0.0
2015-Jul-26 08:33N 33°44' W 118°16'0 0.0
2015-Jul-26 07:33N 33°44' W 118°16'0 0.0
2015-Jul-26 06:33N 33°44' W 118°16'0 0.0
2015-Jul-26 05:27N 33°44' W 118°16'0 0.0
2015-Jul-26 04:30N 33°44' W 118°16'0 0.0
2015-Jul-26 03:33N 33°44' W 118°16'0 0.0
2015-Jul-26 02:33N 33°44' W 118°16'0 0.0
2015-Jul-26 01:33N 33°44' W 118°16'0 0.0
2015-Jul-26 00:33N 33°44' W 118°16'0 0.0
2015-Jul-25 23:33N 33°44' W 118°16'3 2.7
2015-Jul-25 22:34N 33°45' W 118°13'1 0.9
2015-Jul-25 21:34N 33°46' W 118°13'2 2.0
2015-Jul-25 20:33N 33°44' W 118°13'2 2.1
2015-Jul-25 19:33N 33°44' W 118°16'0 0.1
2015-Jul-25 18:33N 33°44' W 118°16'0 0.0
2015-Jul-25 17:33N 33°44' W 118°16'0 0.0
2015-Jul-25 16:33N 33°44' W 118°16'0 0.0
2015-Jul-25 15:33N 33°44' W 118°16'0 0.0
2015-Jul-25 14:23N 33°44' W 118°16'0 0.0
2015-Jul-25 13:33N 33°44' W 118°16'0 0.0
2015-Jul-25 12:33N 33°44' W 118°16'0 0.0
2015-Jul-25 11:33N 33°44' W 118°16'0 0.0
2015-Jul-25 10:33N 33°44' W 118°16'0 0.0
2015-Jul-25 09:33N 33°44' W 118°16'0 0.0
2015-Jul-25 08:33N 33°44' W 118°16'0 0.0
2015-Jul-25 07:33N 33°44' W 118°16'0 0.0
2015-Jul-25 06:33N 33°44' W 118°16'0 0.0
2015-Jul-25 05:33N 33°44' W 118°16'0 0.0
2015-Jul-25 04:33N 33°44' W 118°16'0 0.0
2015-Jul-25 03:33N 33°44' W 118°16'0 0.0
2015-Jul-25 02:33N 33°44' W 118°16'0 0.0
2015-Jul-25 01:33N 33°44' W 118°16'0 0.0
2015-Jul-25 00:33N 33°44' W 118°16'0 0.0
2015-Jul-24 23:33N 33°44' W 118°16'1 1.4
2015-Jul-24 22:33N 33°45' W 118°16'1 1.0
2015-Jul-24 21:33N 33°44' W 118°17'0 0.2
2015-Jul-24 19:32N 33°45' W 118°17'2 1.9
2015-Jul-24 18:34N 33°46' W 118°15'2 1.9
2015-Jul-24 17:30N 33°44' W 118°16'2 1.5
2015-Jul-24 16:29N 33°43' W 118°14'3 2.7
2015-Jul-24 15:12N 33°44' W 118°10'1 1.5
2015-Jul-24 14:33N 33°44' W 118°11'4 3.2
2015-Jul-24 13:21N 33°43' W 118°16'1 0.9
2015-Jul-24 12:33N 33°44' W 118°16'0 0.0
2015-Jul-24 11:32N 33°44' W 118°16'0 0.0
2015-Jul-24 10:26N 33°44' W 118°16'0 0.0
2015-Jul-24 09:33N 33°44' W 118°16'0 0.0
2015-Jul-24 08:33N 33°44' W 118°16'0 0.0
2015-Jul-24 05:32N 33°44' W 118°16'0 0.0
2015-Jul-24 04:28N 33°44' W 118°16'0 0.0
2015-Jul-24 03:33N 33°44' W 118°16'0 0.0
2015-Jul-24 02:31N 33°44' W 118°16'0 0.0
2015-Jul-24 01:28N 33°44' W 118°16'0 0.0
2015-Jul-23 23:31N 33°44' W 118°16'0 0.0
2015-Jul-23 22:33N 33°44' W 118°16'0 0.0
2015-Jul-23 21:30N 33°44' W 118°16'0 0.0
2015-Jul-23 20:31N 33°44' W 118°16'0 0.0
2015-Jul-23 18:29N 33°44' W 118°16'2 0.5
2015-Jul-23 13:19N 33°45' W 118°13'1 1.8
2015-Jul-23 12:33N 33°46' W 118°13'3 1.4
2015-Jul-23 10:30N 33°44' W 118°16'0 0.0
2015-Jul-23 09:32N 33°44' W 118°16'0 0.0
2015-Jul-23 08:29N 33°44' W 118°16'0 0.0
2015-Jul-23 07:33N 33°44' W 118°16'0 0.0
2015-Jul-23 06:32N 33°44' W 118°16'0 0.0
2015-Jul-23 05:27N 33°44' W 118°16'0 0.0
2015-Jul-23 04:33N 33°44' W 118°16'0 0.0
2015-Jul-23 03:33N 33°44' W 118°16'0 0.0
2015-Jul-23 02:26N 33°44' W 118°16'0 0.0
2015-Jul-23 01:33N 33°44' W 118°16'5 4.9
2015-Jul-23 00:32N 33°44' W 118°10'4 3.2
2015-Jul-22 23:22N 33°43' W 118°14'2 1.6
2015-Jul-22 22:18N 33°44' W 118°16'0 0.4
2015-Jul-22 21:32N 33°43' W 118°16'2 2.5
2015-Jul-22 20:33N 33°46' W 118°16'2 2.0
2015-Jul-22 19:33N 33°44' W 118°16'0 0.0
2015-Jul-22 18:22N 33°44' W 118°16'0 0.0
2015-Jul-22 17:33N 33°44' W 118°16'0 0.0
2015-Jul-22 16:28N 33°44' W 118°16'0 0.0
2015-Jul-22 15:10N 33°44' W 118°16'0 0.0
2015-Jul-22 14:04N 33°44' W 118°16'2 3.3
2015-Jul-22 13:33N 33°43' W 118°14'2 2.4
2015-Jul-22 12:33N 33°46' W 118°13'3 3.0
2015-Jul-22 11:27N 33°43' W 118°15'1 1.1
2015-Jul-22 10:23N 33°44' W 118°16'0 0.0
2015-Jul-22 09:33N 33°44' W 118°16'0 0.0
2015-Jul-22 07:30N 33°44' W 118°16'0 0.0
2015-Jul-22 06:33N 33°44' W 118°16'0 0.0
2015-Jul-22 04:04N 33°44' W 118°16'0 0.0
2015-Jul-22 03:29N 33°44' W 118°16'3 3.5
2015-Jul-22 02:33N 33°46' W 118°13'1 1.0
2015-Jul-22 01:33N 33°46' W 118°14'1 1.0
2015-Jul-22 00:33N 33°46' W 118°13'1 0.8
2015-Jul-21 23:24N 33°45' W 118°12'1 0.6
2015-Jul-21 22:33N 33°45' W 118°13'3 1.5
2015-Jul-21 20:30N 33°44' W 118°16'1 0.7
2015-Jul-21 19:24N 33°43' W 118°16'1 0.5
2015-Jul-21 18:23N 33°44' W 118°16'0 0.0
2015-Jul-21 11:33N 33°44' W 118°16'0 0.0
2015-Jul-21 09:21N 33°44' W 118°16'0 0.0
2015-Jul-21 08:26N 33°44' W 118°16'0 0.0
2015-Jul-21 07:32N 33°44' W 118°16'0 0.0
2015-Jul-21 06:33N 33°44' W 118°16'0 0.0
2015-Jul-21 05:28N 33°44' W 118°16'0 0.0
2015-Jul-21 03:31N 33°44' W 118°16'2 1.8
2015-Jul-21 02:33N 33°45' W 118°17'2 1.5
2015-Jul-21 01:32N 33°44' W 118°16'2 1.9
2015-Jul-21 00:33N 33°46' W 118°15'2 0.3
2015-Jul-20 19:08N 33°44' W 118°16'0 0.0
2015-Jul-20 18:26N 33°44' W 118°16'0 0.0
2015-Jul-20 14:32N 33°44' W 118°16'1 0.3
2015-Jul-20 11:30N 33°44' W 118°17'1 0.9
2015-Jul-20 10:33N 33°45' W 118°16'1 1.2
2015-Jul-20 09:31N 33°44' W 118°16'0 0.0
2015-Jul-20 08:20N 33°44' W 118°16'0 0.0
2015-Jul-20 07:29N 33°44' W 118°16'0 0.0
2015-Jul-20 06:33N 33°44' W 118°16'0 0.0
2015-Jul-20 05:32N 33°44' W 118°16'0 0.0
2015-Jul-20 04:08N 33°44' W 118°16'1 0.4
2015-Jul-20 02:14N 33°43' W 118°16'2 2.3
2015-Jul-20 01:33N 33°45' W 118°16'1 0.5
2015-Jul-19 23:07N 33°44' W 118°16'0 0.8
2015-Jul-19 22:33N 33°44' W 118°15'0 0.5
2015-Jul-19 21:33N 33°44' W 118°16'0 0.1
2015-Jul-19 20:30N 33°44' W 118°16'0 0.0
2015-Jul-19 19:33N 33°44' W 118°16'1 0.9
2015-Jul-19 18:25N 33°43' W 118°15'2 2.8
2015-Jul-19 17:33N 33°44' W 118°13'2 0.9
2015-Jul-19 15:09N 33°44' W 118°16'0 0.0
2015-Jul-19 14:33N 33°44' W 118°16'  
Track history (hours):
 
Tides and Currents Weather Stations Pressure Air Temp Water Temp Dewpoint Dewpoint Depression Visibility Wind Speed Wind Dir Waves Ship Positions

Tim Quigg

Owner: Harley Marine Services, Inc, Seattle, WA. More information available from US FCC via Universal Licensing System and Coast Guard Vessel Documentation Center.

Last reported at 2015-Jul-29 09:20 UTC. Time now 2015-Jul-29 11:30 UTC.
Position N 33°44' W 118°16'.

; draft 7.5 m.

Type: Tug. MMSI: 366926740.

Date/timePositionNaut miles runAvg speedWind from/ knotsBaromVisibWave heightAir tempDewpointWater temp
2015-Jul-29 09:20N 33°44' W 118°16'0 0.0
2015-Jul-29 08:33N 33°44' W 118°16'0 0.0
2015-Jul-29 07:34N 33°44' W 118°16'0 0.0
2015-Jul-29 06:17N 33°44' W 118°16'0 0.0
2015-Jul-29 04:15N 33°44' W 118°16'0 0.0
2015-Jul-29 03:33N 33°44' W 118°16'0 0.0
2015-Jul-29 02:34N 33°44' W 118°16'0 0.0
2015-Jul-29 01:33N 33°44' W 118°16'2 1.7
2015-Jul-29 00:27N 33°43' W 118°14'1 1.4
2015-Jul-28 23:33N 33°44' W 118°12'3 3.0
2015-Jul-28 22:33N 33°44' W 118°16'0 0.0
2015-Jul-28 21:33N 33°44' W 118°16'0 0.0
2015-Jul-28 20:33N 33°44' W 118°16'4 3.3
2015-Jul-28 19:28N 33°47' W 118°13'0 0.5
2015-Jul-28 18:34N 33°46' W 118°13'0 0.3
2015-Jul-28 17:33N 33°46' W 118°13'2 1.7
2015-Jul-28 16:33N 33°45' W 118°13'2 1.7
2015-Jul-28 15:33N 33°43' W 118°12'3 1.6
2015-Jul-28 13:28N 33°44' W 118°16'2 2.0
2015-Jul-28 12:29N 33°46' W 118°16'3 3.4
2015-Jul-28 11:32N 33°43' W 118°15'1 0.6
2015-Jul-28 09:15N 33°44' W 118°16'0 0.0
2015-Jul-28 08:21N 33°44' W 118°16'0 0.0
2015-Jul-28 07:31N 33°44' W 118°16'0 0.0
2015-Jul-28 06:32N 33°44' W 118°16'0 0.0
2015-Jul-28 05:33N 33°44' W 118°16'0 0.0
2015-Jul-28 04:34N 33°44' W 118°16'0 0.0
2015-Jul-28 03:33N 33°44' W 118°16'0 0.0
2015-Jul-28 02:33N 33°44' W 118°16'0 0.0
2015-Jul-28 01:33N 33°44' W 118°16'0 0.0
2015-Jul-28 00:33N 33°44' W 118°16'0 0.0
2015-Jul-27 23:33N 33°44' W 118°16'0 0.0
2015-Jul-27 22:32N 33°44' W 118°16'0 0.0
2015-Jul-27 21:33N 33°44' W 118°16'0 0.0
2015-Jul-27 19:19N 33°44' W 118°16'0 0.0
2015-Jul-27 18:33N 33°44' W 118°16'1 0.5
2015-Jul-27 17:11N 33°44' W 118°16'0 0.0
2015-Jul-27 16:24N 33°44' W 118°16'0 0.0
2015-Jul-27 15:30N 33°44' W 118°16'3 1.3
2015-Jul-27 13:19N 33°43' W 118°13'2 1.9
2015-Jul-27 12:10N 33°44' W 118°16'0 0.0
2015-Jul-27 10:10N 33°44' W 118°16'0 0.0
2015-Jul-27 09:30N 33°44' W 118°16'0 0.0
2015-Jul-27 08:28N 33°44' W 118°16'0 0.0
2015-Jul-27 07:34N 33°44' W 118°16'0 0.0
2015-Jul-27 04:33N 33°44' W 118°16'0 0.0
2015-Jul-27 03:33N 33°44' W 118°16'0 0.0
2015-Jul-27 02:33N 33°44' W 118°16'0 0.0
2015-Jul-27 01:33N 33°44' W 118°16'0 0.0
2015-Jul-27 00:34N 33°44' W 118°16'0 0.0
2015-Jul-26 23:33N 33°44' W 118°16'0 0.0
2015-Jul-26 22:33N 33°44' W 118°16'0 0.0
2015-Jul-26 21:33N 33°44' W 118°16'0 0.0
2015-Jul-26 20:33N 33°44' W 118°16'0 0.0
2015-Jul-26 19:32N 33°44' W 118°16'0 0.0
2015-Jul-26 18:33N 33°44' W 118°16'0 0.0
2015-Jul-26 17:32N 33°44' W 118°16'0 0.0
2015-Jul-26 15:33N 33°44' W 118°16'3 2.5
2015-Jul-26 14:32N 33°45' W 118°13'1 0.6
2015-Jul-26 13:24N 33°45' W 118°12'2 1.8
2015-Jul-26 12:33N 33°45' W 118°14'2 1.6
2015-Jul-26 11:30N 33°44' W 118°14'2 1.3
2015-Jul-26 10:12N 33°44' W 118°16'0 0.0
2015-Jul-26 09:30N 33°44' W 118°16'0 0.0
2015-Jul-26 08:33N 33°44' W 118°16'0 0.0
2015-Jul-26 07:33N 33°44' W 118°16'0 0.0
2015-Jul-26 06:33N 33°44' W 118°16'0 0.0
2015-Jul-26 05:27N 33°44' W 118°16'0 0.0
2015-Jul-26 04:30N 33°44' W 118°16'0 0.0
2015-Jul-26 03:33N 33°44' W 118°16'0 0.0
2015-Jul-26 02:33N 33°44' W 118°16'0 0.0
2015-Jul-26 01:33N 33°44' W 118°16'0 0.0
2015-Jul-26 00:33N 33°44' W 118°16'0 0.0
2015-Jul-25 23:33N 33°44' W 118°16'3 2.7
2015-Jul-25 22:34N 33°45' W 118°13'1 0.9
2015-Jul-25 21:34N 33°46' W 118°13'2 2.0
2015-Jul-25 20:33N 33°44' W 118°13'2 2.1
2015-Jul-25 19:33N 33°44' W 118°16'0 0.1
2015-Jul-25 18:33N 33°44' W 118°16'0 0.0
2015-Jul-25 17:33N 33°44' W 118°16'0 0.0
2015-Jul-25 16:33N 33°44' W 118°16'0 0.0
2015-Jul-25 15:33N 33°44' W 118°16'0 0.0
2015-Jul-25 14:23N 33°44' W 118°16'0 0.0
2015-Jul-25 13:33N 33°44' W 118°16'0 0.0
2015-Jul-25 12:33N 33°44' W 118°16'0 0.0
2015-Jul-25 11:33N 33°44' W 118°16'0 0.0
2015-Jul-25 10:33N 33°44' W 118°16'0 0.0
2015-Jul-25 09:33N 33°44' W 118°16'0 0.0
2015-Jul-25 08:33N 33°44' W 118°16'0 0.0
2015-Jul-25 07:33N 33°44' W 118°16'0 0.0
2015-Jul-25 06:33N 33°44' W 118°16'0 0.0
2015-Jul-25 05:33N 33°44' W 118°16'0 0.0
2015-Jul-25 04:33N 33°44' W 118°16'0 0.0
2015-Jul-25 03:33N 33°44' W 118°16'0 0.0
2015-Jul-25 02:33N 33°44' W 118°16'0 0.0
2015-Jul-25 01:33N 33°44' W 118°16'0 0.0
2015-Jul-25 00:33N 33°44' W 118°16'0 0.0
2015-Jul-24 23:33N 33°44' W 118°16'1 1.4
2015-Jul-24 22:33N 33°45' W 118°16'1 1.0
2015-Jul-24 21:33N 33°44' W 118°17'0 0.2
2015-Jul-24 19:32N 33°45' W 118°17'2 1.9
2015-Jul-24 18:34N 33°46' W 118°15'2 1.9
2015-Jul-24 17:30N 33°44' W 118°16'2 1.5
2015-Jul-24 16:29N 33°43' W 118°14'3 2.7
2015-Jul-24 15:12N 33°44' W 118°10'1 1.5
2015-Jul-24 14:33N 33°44' W 118°11'4 3.2
2015-Jul-24 13:21N 33°43' W 118°16'1 0.9
2015-Jul-24 12:33N 33°44' W 118°16'0 0.0
2015-Jul-24 11:32N 33°44' W 118°16'0 0.0
2015-Jul-24 10:26N 33°44' W 118°16'0 0.0
2015-Jul-24 09:33N 33°44' W 118°16'0 0.0
2015-Jul-24 08:33N 33°44' W 118°16'0 0.0
2015-Jul-24 05:32N 33°44' W 118°16'0 0.0
2015-Jul-24 04:28N 33°44' W 118°16'0 0.0
2015-Jul-24 03:33N 33°44' W 118°16'0 0.0
2015-Jul-24 02:31N 33°44' W 118°16'0 0.0
2015-Jul-24 01:28N 33°44' W 118°16'0 0.0
2015-Jul-23 23:31N 33°44' W 118°16'0 0.0
2015-Jul-23 22:33N 33°44' W 118°16'0 0.0
2015-Jul-23 21:30N 33°44' W 118°16'0 0.0
2015-Jul-23 20:31N 33°44' W 118°16'0 0.0
2015-Jul-23 18:29N 33°44' W 118°16'2 0.5
2015-Jul-23 13:19N 33°45' W 118°13'1 1.8
2015-Jul-23 12:33N 33°46' W 118°13'3 1.4
2015-Jul-23 10:30N 33°44' W 118°16'0 0.0
2015-Jul-23 09:32N 33°44' W 118°16'0 0.0
2015-Jul-23 08:29N 33°44' W 118°16'0 0.0
2015-Jul-23 07:33N 33°44' W 118°16'0 0.0
2015-Jul-23 06:32N 33°44' W 118°16'0 0.0
2015-Jul-23 05:27N 33°44' W 118°16'0 0.0
2015-Jul-23 04:33N 33°44' W 118°16'0 0.0
2015-Jul-23 03:33N 33°44' W 118°16'0 0.0
2015-Jul-23 02:26N 33°44' W 118°16'0 0.0
2015-Jul-23 01:33N 33°44' W 118°16'5 4.9
2015-Jul-23 00:32N 33°44' W 118°10'4 3.2
2015-Jul-22 23:22N 33°43' W 118°14'2 1.6
2015-Jul-22 22:18N 33°44' W 118°16'0 0.4
2015-Jul-22 21:32N 33°43' W 118°16'2 2.5
2015-Jul-22 20:33N 33°46' W 118°16'2 2.0
2015-Jul-22 19:33N 33°44' W 118°16'0 0.0
2015-Jul-22 18:22N 33°44' W 118°16'0 0.0
2015-Jul-22 17:33N 33°44' W 118°16'0 0.0
2015-Jul-22 16:28N 33°44' W 118°16'0 0.0
2015-Jul-22 15:10N 33°44' W 118°16'0 0.0
2015-Jul-22 14:04N 33°44' W 118°16'2 3.3
2015-Jul-22 13:33N 33°43' W 118°14'2 2.4
2015-Jul-22 12:33N 33°46' W 118°13'3 3.0
2015-Jul-22 11:27N 33°43' W 118°15'1 1.1
2015-Jul-22 10:23N 33°44' W 118°16'0 0.0
2015-Jul-22 09:33N 33°44' W 118°16'0 0.0
2015-Jul-22 07:30N 33°44' W 118°16'0 0.0
2015-Jul-22 06:33N 33°44' W 118°16'0 0.0
2015-Jul-22 04:04N 33°44' W 118°16'0 0.0
2015-Jul-22 03:29N 33°44' W 118°16'3 3.5
2015-Jul-22 02:33N 33°46' W 118°13'1 1.0
2015-Jul-22 01:33N 33°46' W 118°14'1 1.0
2015-Jul-22 00:33N 33°46' W 118°13'1 0.8
2015-Jul-21 23:24N 33°45' W 118°12'1 0.6
2015-Jul-21 22:33N 33°45' W 118°13'3 1.5
2015-Jul-21 20:30N 33°44' W 118°16'1 0.7
2015-Jul-21 19:24N 33°43' W 118°16'1 0.5
2015-Jul-21 18:23N 33°44' W 118°16'0 0.0
2015-Jul-21 11:33N 33°44' W 118°16'0 0.0
2015-Jul-21 09:21N 33°44' W 118°16'0 0.0
2015-Jul-21 08:26N 33°44' W 118°16'0 0.0
2015-Jul-21 07:32N 33°44' W 118°16'0 0.0
2015-Jul-21 06:33N 33°44' W 118°16'0 0.0
2015-Jul-21 05:28N 33°44' W 118°16'0 0.0
2015-Jul-21 03:31N 33°44' W 118°16'2 1.8
2015-Jul-21 02:33N 33°45' W 118°17'2 1.5
2015-Jul-21 01:32N 33°44' W 118°16'2 1.9
2015-Jul-21 00:33N 33°46' W 118°15'2 0.3
2015-Jul-20 19:08N 33°44' W 118°16'0 0.0
2015-Jul-20 18:26N 33°44' W 118°16'0 0.0
2015-Jul-20 14:32N 33°44' W 118°16'1 0.3
2015-Jul-20 11:30N 33°44' W 118°17'1 0.9
2015-Jul-20 10:33N 33°45' W 118°16'1 1.2
2015-Jul-20 09:31N 33°44' W 118°16'0 0.0
2015-Jul-20 08:20N 33°44' W 118°16'0 0.0
2015-Jul-20 07:29N 33°44' W 118°16'0 0.0
2015-Jul-20 06:33N 33°44' W 118°16'0 0.0
2015-Jul-20 05:32N 33°44' W 118°16'0 0.0
2015-Jul-20 04:08N 33°44' W 118°16'1 0.4
2015-Jul-20 02:14N 33°43' W 118°16'2 2.3
2015-Jul-20 01:33N 33°45' W 118°16'1 0.5
2015-Jul-19 23:07N 33°44' W 118°16'0 0.8
2015-Jul-19 22:33N 33°44' W 118°15'0 0.5
2015-Jul-19 21:33N 33°44' W 118°16'0 0.1
2015-Jul-19 20:30N 33°44' W 118°16'0 0.0
2015-Jul-19 19:33N 33°44' W 118°16'1 0.9
2015-Jul-19 18:25N 33°43' W 118°15'2 2.8
2015-Jul-19 17:33N 33°44' W 118°13'2 0.9
2015-Jul-19 15:09N 33°44' W 118°16'0 0.0
2015-Jul-19 14:33N 33°44' W 118°16'  

Dump ship's entire track history